createdAt,value
2024-04-25T00:01:05.715Z,63.70
2024-04-25T00:03:54.008Z,63.00
2024-04-25T00:06:22.327Z,62.60
2024-04-25T00:08:51.084Z,63.78
2024-04-25T00:11:21.298Z,63.32
2024-04-25T00:15:04.654Z,63.97
2024-04-25T00:17:33.100Z,62.99
2024-04-25T00:20:01.877Z,63.47
2024-04-25T00:22:30.676Z,64.11
2024-04-25T00:24:58.994Z,64.35
2024-04-25T00:27:27.764Z,65.45
2024-04-25T00:29:58.178Z,64.61
2024-04-25T00:32:26.822Z,64.74
2024-04-25T00:34:57.168Z,64.83
2024-04-25T00:37:26.518Z,64.65
2024-04-25T00:39:56.328Z,65.05
2024-04-25T00:42:25.100Z,64.77
2024-04-25T00:44:53.845Z,63.98
2024-04-25T00:47:24.181Z,64.39
2024-04-25T00:49:56.355Z,63.66
2024-04-25T00:52:24.957Z,64.67
2024-04-25T00:54:53.573Z,64.62
2024-04-25T00:57:25.098Z,64.90
2024-04-25T00:59:57.330Z,64.79
2024-04-25T01:02:27.722Z,64.56
2024-04-25T01:04:57.337Z,64.63
2024-04-25T01:07:25.589Z,64.82
2024-04-25T01:09:57.650Z,64.95
2024-04-25T01:12:26.888Z,64.66
2024-04-25T01:14:55.068Z,64.78
2024-04-25T01:17:23.559Z,65.19
2024-04-25T01:19:51.999Z,64.96
2024-04-25T01:22:21.909Z,65.22
2024-04-25T01:24:51.580Z,65.22
2024-04-25T01:27:19.902Z,65.52
2024-04-25T01:29:49.098Z,65.31
2024-04-25T01:32:17.558Z,65.32
2024-04-25T01:34:45.975Z,65.36
2024-04-25T01:37:14.328Z,65.28
2024-04-25T01:39:42.280Z,65.19
2024-04-25T01:42:10.586Z,65.35
2024-04-25T01:44:38.870Z,64.80
2024-04-25T01:47:07.057Z,64.85
2024-04-25T01:49:35.328Z,64.98
2024-04-25T01:52:04.062Z,65.64
2024-04-25T01:54:32.402Z,65.62
2024-04-25T01:57:00.963Z,65.75
2024-04-25T01:59:29.126Z,65.84
2024-04-25T02:01:57.679Z,65.16
2024-04-25T02:04:26.547Z,65.43
2024-04-25T02:06:54.934Z,66.10
2024-04-25T02:09:23.701Z,64.91
2024-04-25T02:11:52.092Z,64.99
2024-04-25T02:14:20.571Z,64.78
2024-04-25T02:16:48.751Z,64.72
2024-04-25T02:19:16.751Z,64.76
2024-04-25T02:22:04.536Z,64.36
2024-04-25T02:24:51.491Z,64.27
2024-04-25T02:27:19.913Z,64.10
2024-04-25T02:29:48.194Z,63.83
2024-04-25T02:32:16.633Z,64.07
2024-04-25T02:34:45.167Z,64.08
2024-04-25T02:37:13.611Z,64.38
2024-04-25T02:39:41.909Z,64.04
2024-04-25T02:42:10.007Z,63.86
2024-04-25T02:44:38.537Z,63.19
2024-04-25T02:47:07.075Z,63.17
2024-04-25T02:49:35.460Z,63.15
2024-04-25T02:52:03.923Z,62.97
2024-04-25T02:54:32.681Z,63.13
2024-04-25T02:57:00.966Z,62.95
2024-04-25T02:59:28.859Z,63.07
2024-04-25T03:01:57.274Z,62.59
2024-04-25T03:04:26.188Z,63.07
2024-04-25T03:06:54.360Z,64.10
2024-04-25T03:09:23.075Z,64.86
2024-04-25T03:11:51.658Z,65.13
2024-04-25T03:14:21.813Z,64.28
2024-04-25T03:16:50.061Z,64.27
2024-04-25T03:19:18.335Z,64.39
2024-04-25T03:21:46.547Z,64.48
2024-04-25T03:24:14.657Z,64.25
2024-04-25T03:26:42.991Z,64.37
2024-04-25T03:29:11.860Z,64.22
2024-04-25T03:31:40.444Z,64.13
2024-04-25T03:34:08.688Z,64.68
2024-04-25T03:36:37.173Z,65.33
2024-04-25T03:39:05.108Z,65.73
2024-04-25T03:41:34.055Z,66.02
2024-04-25T03:44:02.512Z,66.54
2024-04-25T03:46:30.806Z,66.52
2024-04-25T03:48:59.137Z,66.16
2024-04-25T03:51:27.599Z,66.49
2024-04-25T03:53:55.927Z,66.44
2024-04-25T03:56:24.194Z,66.31
2024-04-25T03:58:52.857Z,66.06
2024-04-25T04:01:21.379Z,66.04
2024-04-25T04:03:49.703Z,66.09
2024-04-25T04:06:21.544Z,66.08
2024-04-25T04:08:49.874Z,66.19
2024-04-25T04:11:18.578Z,66.32
2024-04-25T04:13:47.169Z,65.89
2024-04-25T04:16:15.481Z,66.13
2024-04-25T04:18:44.400Z,66.67
2024-04-25T04:21:14.221Z,65.82
2024-04-25T04:23:44.469Z,65.47
2024-04-25T04:26:13.224Z,65.56
2024-04-25T04:28:41.509Z,65.56
2024-04-25T04:31:09.605Z,66.06
2024-04-25T04:33:40.845Z,65.58
2024-04-25T04:36:09.973Z,65.70
2024-04-25T04:38:38.439Z,65.76
2024-04-25T04:41:07.627Z,65.14
2024-04-25T04:43:37.958Z,65.63
2024-04-25T04:46:06.399Z,64.96
2024-04-25T04:48:35.612Z,65.67
2024-04-25T04:51:04.552Z,65.90
2024-04-25T04:53:33.956Z,66.18
2024-04-25T04:56:03.392Z,65.24
2024-04-25T04:58:37.643Z,65.42
2024-04-25T05:01:06.303Z,66.02
2024-04-25T05:03:34.705Z,66.14
2024-04-25T05:06:03.024Z,65.82
2024-04-25T05:08:33.149Z,66.45
2024-04-25T05:11:03.021Z,65.76
2024-04-25T05:13:33.099Z,65.99
2024-04-25T05:16:01.891Z,65.46
2024-04-25T05:18:30.208Z,66.49
2024-04-25T05:20:58.654Z,65.53
2024-04-25T05:23:27.316Z,66.33
2024-04-25T05:25:57.048Z,66.38
2024-04-25T05:28:26.668Z,65.86
2024-04-25T05:30:55.015Z,65.66
2024-04-25T05:33:23.744Z,65.63
2024-04-25T05:35:52.734Z,65.85
2024-04-25T05:38:22.178Z,65.98
2024-04-25T05:40:51.211Z,65.89
2024-04-25T05:43:21.931Z,65.57
2024-04-25T05:45:53.137Z,65.78
2024-04-25T05:48:23.960Z,65.78
2024-04-25T05:50:55.077Z,65.86
2024-04-25T05:53:24.129Z,65.50
2024-04-25T05:55:53.987Z,65.82
2024-04-25T05:58:23.536Z,65.75
2024-04-25T06:00:55.923Z,65.58
2024-04-25T06:03:25.929Z,65.57
2024-04-25T06:05:55.459Z,65.65
2024-04-25T06:08:24.350Z,65.41
2024-04-25T06:11:01.457Z,65.61
2024-04-25T06:13:31.105Z,65.84
2024-04-25T06:16:00.208Z,65.73
2024-04-25T06:18:29.475Z,65.68
2024-04-25T06:20:58.260Z,65.84
2024-04-25T06:23:26.675Z,66.08
2024-04-25T06:25:56.427Z,65.33
2024-04-25T06:28:26.759Z,65.72
2024-04-25T06:30:58.571Z,65.98
2024-04-25T06:33:30.409Z,66.36
2024-04-25T06:35:58.869Z,65.69
2024-04-25T06:38:28.431Z,65.73
2024-04-25T06:40:56.770Z,65.76
2024-04-25T06:43:25.702Z,66.48
2024-04-25T06:45:55.263Z,66.16
2024-04-25T06:48:24.091Z,65.96
2024-04-25T06:50:54.761Z,66.85
2024-04-25T06:53:25.477Z,66.84
2024-04-25T06:55:55.871Z,67.82
2024-04-25T06:58:24.610Z,66.48
2024-04-25T07:00:52.636Z,66.92
2024-04-25T07:03:21.114Z,67.25
2024-04-25T07:05:50.114Z,67.69
2024-04-25T07:08:19.246Z,66.77
2024-04-25T07:10:55.019Z,66.77
2024-04-25T07:13:29.816Z,66.98
2024-04-25T07:16:03.086Z,67.42
2024-04-25T07:18:33.459Z,66.87
2024-04-25T07:21:02.032Z,66.80
2024-04-25T07:23:35.317Z,66.32
2024-04-25T07:26:03.996Z,66.05
2024-04-25T07:28:36.497Z,65.81
2024-04-25T07:31:06.140Z,65.91
2024-04-25T07:33:34.877Z,65.65
2024-04-25T07:36:04.169Z,65.38
2024-04-25T07:38:32.952Z,65.26
2024-04-25T07:41:01.702Z,65.53
2024-04-25T07:43:30.704Z,66.20
2024-04-25T07:45:58.884Z,66.22
2024-04-25T07:48:27.307Z,66.06
2024-04-25T07:50:55.845Z,65.97
2024-04-25T07:53:26.277Z,66.52
2024-04-25T07:55:56.629Z,65.77
2024-04-25T07:58:26.265Z,65.67
2024-04-25T08:00:59.819Z,66.01
2024-04-25T08:03:41.861Z,65.85
2024-04-25T08:06:15.206Z,65.61
2024-04-25T08:08:47.308Z,66.20
2024-04-25T08:11:15.978Z,67.65
2024-04-25T08:13:46.802Z,66.77
2024-04-25T08:16:17.299Z,66.73
2024-04-25T08:18:46.479Z,66.82
2024-04-25T08:21:15.171Z,65.92
2024-04-25T08:23:44.390Z,66.62
2024-04-25T08:26:15.189Z,66.09
2024-04-25T08:28:43.843Z,65.95
2024-04-25T08:31:12.823Z,66.04
2024-04-25T08:33:41.349Z,66.03
2024-04-25T08:36:10.231Z,66.75
2024-04-25T08:38:40.938Z,66.36
2024-04-25T08:41:09.479Z,66.22
2024-04-25T08:43:43.141Z,66.85
2024-04-25T08:46:16.912Z,66.81
2024-04-25T08:48:46.760Z,66.03
2024-04-25T08:51:20.966Z,65.75
2024-04-25T08:53:53.690Z,66.51
2024-04-25T08:56:32.187Z,66.37
2024-04-25T08:59:18.184Z,67.42
2024-04-25T09:01:59.706Z,68.41
2024-04-25T09:04:32.905Z,67.85
2024-04-25T09:07:14.196Z,67.34
2024-04-25T09:09:43.026Z,67.75
2024-04-25T09:12:11.526Z,68.50
2024-04-25T09:14:39.741Z,69.51
2024-04-25T09:17:18.327Z,68.52
2024-04-25T09:19:48.888Z,68.52
2024-04-25T09:22:18.412Z,68.57
2024-04-25T09:24:47.326Z,69.30
2024-04-25T09:27:15.588Z,69.31
2024-04-25T09:29:46.981Z,70.10
2024-04-25T09:32:19.405Z,70.27
2024-04-25T09:34:48.590Z,70.62
2024-04-25T09:37:17.748Z,71.40
2024-04-25T09:39:55.116Z,70.90
2024-04-25T09:42:28.244Z,71.30
2024-04-25T09:44:58.093Z,71.30
2024-04-25T09:47:41.669Z,70.96
2024-04-25T09:50:17.690Z,71.16
2024-04-25T09:52:56.266Z,70.84
2024-04-25T09:55:33.476Z,69.52
2024-04-25T09:58:06.311Z,68.80
2024-04-25T10:00:37.015Z,68.29
2024-04-25T10:03:06.649Z,67.34
2024-04-25T10:05:36.142Z,67.91
2024-04-25T10:08:05.821Z,68.51
2024-04-25T10:10:34.572Z,68.90
2024-04-25T10:13:02.913Z,69.15
2024-04-25T10:15:33.140Z,68.48
2024-04-25T10:18:06.058Z,68.92
2024-04-25T10:20:34.374Z,68.68
2024-04-25T10:23:03.327Z,66.92
2024-04-25T10:25:32.511Z,66.91
2024-04-25T10:28:09.343Z,66.93
2024-04-25T10:30:37.597Z,66.40
2024-04-25T10:33:06.098Z,67.33
2024-04-25T10:35:38.213Z,69.18
2024-04-25T10:38:06.962Z,68.94
2024-04-25T10:40:36.128Z,68.89
2024-04-25T10:43:05.807Z,70.17
2024-04-25T10:45:34.937Z,68.75
2024-04-25T10:48:03.824Z,68.30
2024-04-25T10:50:32.522Z,68.36
2024-04-25T10:53:01.776Z,68.61
2024-04-25T10:55:30.613Z,67.62
2024-04-25T10:58:01.352Z,69.14
2024-04-25T11:00:30.004Z,70.00
2024-04-25T11:03:01.682Z,69.13
2024-04-25T11:05:30.562Z,69.24
2024-04-25T11:07:59.088Z,68.97
2024-04-25T11:10:29.245Z,69.92
2024-04-25T11:12:59.323Z,70.60
2024-04-25T11:15:30.511Z,69.71
2024-04-25T11:18:09.671Z,71.26
2024-04-25T11:20:49.631Z,72.25
2024-04-25T11:23:21.638Z,71.63
2024-04-25T11:25:52.137Z,70.05
2024-04-25T11:28:21.199Z,71.56
2024-04-25T11:30:50.390Z,71.28
2024-04-25T11:33:25.084Z,70.53
2024-04-25T11:35:54.968Z,70.35
2024-04-25T11:38:24.561Z,70.32
2024-04-25T11:40:53.730Z,71.66
2024-04-25T11:43:23.412Z,71.55
2024-04-25T11:45:53.275Z,72.57
2024-04-25T11:48:24.799Z,69.28
2024-04-25T11:50:53.258Z,70.96
2024-04-25T11:53:22.616Z,71.09
2024-04-25T11:55:51.234Z,71.53
2024-04-25T11:58:19.580Z,72.62
2024-04-25T12:00:49.644Z,71.33
2024-04-25T12:03:18.979Z,71.62
2024-04-25T12:05:47.732Z,71.51
2024-04-25T12:08:16.188Z,71.61
2024-04-25T12:10:44.581Z,71.49
2024-04-25T12:13:13.067Z,71.47
2024-04-25T12:15:41.593Z,73.43
2024-04-25T12:18:10.446Z,72.86
2024-04-25T12:20:38.610Z,72.38
2024-04-25T12:23:07.283Z,72.00
2024-04-25T12:25:35.555Z,72.49
2024-04-25T12:28:04.240Z,71.79
2024-04-25T12:30:32.944Z,72.92
2024-04-25T12:33:01.445Z,71.75
2024-04-25T12:35:30.010Z,71.61
2024-04-25T12:37:58.580Z,72.94
2024-04-25T12:40:26.694Z,73.78
2024-04-25T12:42:54.561Z,72.45
2024-04-25T12:45:25.272Z,71.79
2024-04-25T12:47:53.641Z,72.00
2024-04-25T12:50:22.980Z,72.00
2024-04-25T12:52:51.600Z,72.31
2024-04-25T12:55:20.384Z,71.90
2024-04-25T12:57:55.950Z,71.60
2024-04-25T13:00:27.203Z,72.01
2024-04-25T13:02:55.959Z,71.73
2024-04-25T13:05:24.407Z,71.87
2024-04-25T13:07:52.660Z,70.96
2024-04-25T13:10:20.947Z,72.02
2024-04-25T13:12:49.185Z,71.50
2024-04-25T13:15:17.920Z,71.49
2024-04-25T13:17:46.578Z,72.33
2024-04-25T13:20:16.458Z,72.27
2024-04-25T13:22:44.676Z,71.60
2024-04-25T13:25:13.377Z,71.81
2024-04-25T13:27:42.237Z,73.02
2024-04-25T13:30:11.525Z,72.39
2024-04-25T13:32:42.934Z,72.52
2024-04-25T13:35:12.287Z,73.31
2024-04-25T13:37:41.587Z,73.35
2024-04-25T13:40:10.067Z,72.73
2024-04-25T13:42:40.071Z,72.26
2024-04-25T13:45:08.759Z,72.11
2024-04-25T13:47:36.953Z,73.11
2024-04-25T13:50:05.867Z,72.64
2024-04-25T13:52:34.650Z,71.99
2024-04-25T13:55:03.437Z,72.15
2024-04-25T13:57:32.916Z,72.75
2024-04-25T14:00:01.288Z,73.03
2024-04-25T14:02:29.860Z,72.90
2024-04-25T14:04:57.914Z,72.96
2024-04-25T14:07:26.154Z,72.34
2024-04-25T14:09:54.782Z,72.34
2024-04-25T14:12:24.355Z,72.38
2024-04-25T14:14:54.120Z,74.06
2024-04-25T14:17:22.680Z,72.89
2024-04-25T14:19:51.308Z,72.49
2024-04-25T14:22:19.680Z,72.95
2024-04-25T14:24:53.887Z,72.95
2024-04-25T14:27:40.854Z,72.54
2024-04-25T14:30:09.760Z,71.96
2024-04-25T14:32:38.078Z,73.43
2024-04-25T14:35:07.169Z,73.29
2024-04-25T14:37:36.047Z,73.19
2024-04-25T14:40:04.806Z,72.99
2024-04-25T14:42:35.225Z,73.70
2024-04-25T14:45:05.166Z,72.98
2024-04-25T14:47:33.975Z,73.35
2024-04-25T14:50:02.557Z,73.45
2024-04-25T14:52:30.778Z,73.70
2024-04-25T14:54:59.122Z,72.65
2024-04-25T14:57:27.926Z,72.23
2024-04-25T14:59:56.236Z,72.50
2024-04-25T15:02:24.337Z,73.69
2024-04-25T15:04:52.604Z,72.60
2024-04-25T15:07:20.732Z,72.67
2024-04-25T15:09:49.670Z,71.94
2024-04-25T15:12:17.845Z,72.28
2024-04-25T15:14:48.840Z,71.83
2024-04-25T15:17:18.329Z,71.50
2024-04-25T15:19:48.052Z,71.60
2024-04-25T15:22:16.342Z,72.89
2024-04-25T15:24:46.319Z,72.44
2024-04-25T15:27:16.478Z,71.49
2024-04-25T15:29:45.920Z,71.74
2024-04-25T15:32:14.247Z,71.90
2024-04-25T15:34:42.694Z,73.36
2024-04-25T15:37:11.153Z,72.18
2024-04-25T15:39:39.480Z,72.73
2024-04-25T15:42:07.989Z,72.77
2024-04-25T15:44:35.869Z,72.99
2024-04-25T15:47:04.903Z,72.34
2024-04-25T15:49:32.984Z,72.23
2024-04-25T15:52:01.805Z,72.95
2024-04-25T15:54:29.881Z,72.61
2024-04-25T15:56:58.070Z,72.59
2024-04-25T15:59:26.283Z,72.72
2024-04-25T16:01:55.060Z,73.17
2024-04-25T16:04:23.267Z,72.64
2024-04-25T16:06:52.576Z,73.37
2024-04-25T16:09:20.832Z,72.34
2024-04-25T16:11:49.132Z,72.57
2024-04-25T16:14:20.087Z,73.43
2024-04-25T16:16:54.722Z,73.91
2024-04-25T16:19:29.832Z,73.42
2024-04-25T16:22:01.924Z,73.28
2024-04-25T16:24:30.267Z,73.92
2024-04-25T16:26:58.988Z,73.37
2024-04-25T16:29:30.335Z,72.86
2024-04-25T16:31:59.193Z,73.43
2024-04-25T16:34:27.433Z,74.64
2024-04-25T16:36:55.623Z,73.17
2024-04-25T16:39:26.730Z,73.91
2024-04-25T16:41:57.616Z,74.16
2024-04-25T16:44:26.510Z,74.65
2024-04-25T16:46:56.919Z,74.12
2024-04-25T16:49:25.124Z,74.21
2024-04-25T16:51:53.092Z,74.21
2024-04-25T16:54:25.817Z,74.92
2024-04-25T16:56:55.052Z,73.91
2024-04-25T16:59:23.595Z,74.01
2024-04-25T17:01:51.793Z,73.94
2024-04-25T17:04:20.856Z,74.65
2024-04-25T17:06:52.649Z,75.83
2024-04-25T17:09:26.820Z,75.14
2024-04-25T17:11:56.400Z,74.82
2024-04-25T17:14:27.567Z,74.89
2024-04-25T17:16:56.598Z,74.25
2024-04-25T17:19:25.146Z,75.40
2024-04-25T17:21:53.353Z,74.81
2024-04-25T17:24:21.298Z,74.98
2024-04-25T17:26:49.770Z,75.71
2024-04-25T17:29:19.775Z,75.16
2024-04-25T17:31:48.439Z,75.43
2024-04-25T17:34:18.874Z,75.54
2024-04-25T17:36:47.480Z,74.50
2024-04-25T17:39:15.926Z,74.73
2024-04-25T17:41:44.680Z,74.12
2024-04-25T17:44:13.117Z,74.83
2024-04-25T17:46:41.161Z,74.45
2024-04-25T17:49:09.621Z,74.41
2024-04-25T17:51:42.986Z,74.47
2024-04-25T17:54:11.144Z,74.23
2024-04-25T17:56:40.499Z,74.42
2024-04-25T17:59:09.210Z,74.70
2024-04-25T18:01:40.239Z,74.28
2024-04-25T18:04:08.776Z,74.93
2024-04-25T18:06:37.347Z,74.86
2024-04-25T18:09:06.267Z,75.24
2024-04-25T18:11:34.735Z,74.85
2024-04-25T18:14:03.727Z,75.10
2024-04-25T18:16:34.107Z,76.23
2024-04-25T18:19:05.011Z,74.96
2024-04-25T18:21:33.532Z,74.62
2024-04-25T18:24:05.968Z,75.07
2024-04-25T18:26:34.384Z,74.82
2024-04-25T18:29:02.952Z,75.85
2024-04-25T18:31:31.284Z,74.75
2024-04-25T18:34:00.532Z,75.06
2024-04-25T18:36:28.824Z,75.49
2024-04-25T18:38:57.444Z,75.21
2024-04-25T18:41:25.844Z,74.74
2024-04-25T18:43:54.198Z,74.89
2024-04-25T18:46:25.892Z,74.84
2024-04-25T18:48:54.821Z,75.87
2024-04-25T18:51:24.117Z,75.86
2024-04-25T18:53:52.783Z,75.42
2024-04-25T18:56:21.385Z,75.53
2024-04-25T18:58:54.174Z,76.22
2024-04-25T19:01:22.534Z,75.23
2024-04-25T19:03:50.463Z,76.01
2024-04-25T19:06:19.662Z,76.00
2024-04-25T19:08:48.534Z,76.13
2024-04-25T19:11:16.989Z,76.54
2024-04-25T19:13:48.229Z,75.98
2024-04-25T19:16:24.728Z,76.84
2024-04-25T19:18:53.844Z,76.51
2024-04-25T19:21:21.991Z,75.93
2024-04-25T19:23:51.142Z,75.47
2024-04-25T19:26:19.593Z,75.45
2024-04-25T19:28:47.897Z,75.55
2024-04-25T19:31:15.821Z,75.00
2024-04-25T19:33:47.306Z,75.34
2024-04-25T19:36:16.415Z,75.54
2024-04-25T19:38:45.174Z,76.27
2024-04-25T19:41:13.390Z,75.59
2024-04-25T19:43:41.405Z,75.20
2024-04-25T19:46:13.362Z,74.88
2024-04-25T19:48:43.703Z,75.97
2024-04-25T19:51:12.948Z,76.43
2024-04-25T19:53:44.524Z,75.23
2024-04-25T19:56:14.584Z,75.43
2024-04-25T19:58:45.187Z,75.05
2024-04-25T20:01:15.451Z,75.49
2024-04-25T20:03:45.216Z,75.92
2024-04-25T20:06:20.010Z,75.13
2024-04-25T20:08:48.311Z,74.92
2024-04-25T20:11:16.680Z,75.61
2024-04-25T20:13:45.357Z,75.57
2024-04-25T20:16:18.654Z,75.11
2024-04-25T20:19:05.566Z,75.85
2024-04-25T20:21:40.274Z,75.51
2024-04-25T20:24:09.038Z,75.48
2024-04-25T20:26:37.304Z,75.89
2024-04-25T20:29:05.772Z,75.87
2024-04-25T20:31:33.921Z,76.42
2024-04-25T20:34:02.695Z,75.68
2024-04-25T20:36:31.456Z,75.67
2024-04-25T20:39:00.118Z,75.43
2024-04-25T20:41:29.032Z,76.72
2024-04-25T20:43:57.535Z,76.86
2024-04-25T20:46:25.783Z,76.84
2024-04-25T20:48:57.520Z,76.88
2024-04-25T20:51:26.754Z,76.35
2024-04-25T20:53:55.131Z,75.71
2024-04-25T20:56:26.533Z,76.43
2024-04-25T20:58:55.682Z,76.42
2024-04-25T21:01:23.834Z,75.80
2024-04-25T21:03:52.379Z,77.09
2024-04-25T21:06:20.762Z,76.32
2024-04-25T21:08:49.041Z,76.55
2024-04-25T21:11:17.480Z,77.33
2024-04-25T21:13:47.896Z,77.12
2024-04-25T21:16:23.693Z,77.16
2024-04-25T21:18:52.139Z,77.24
2024-04-25T21:21:20.508Z,77.09
2024-04-25T21:23:49.098Z,76.85
2024-04-25T21:26:17.385Z,76.57
2024-04-25T21:28:47.729Z,76.27
2024-04-25T21:31:15.931Z,77.10
2024-04-25T21:33:46.949Z,76.49
2024-04-25T21:36:15.535Z,76.80
2024-04-25T21:38:44.194Z,77.77
2024-04-25T21:41:12.540Z,77.35
2024-04-25T21:43:42.552Z,76.82
2024-04-25T21:46:11.118Z,76.07
2024-04-25T21:48:39.784Z,77.36
2024-04-25T21:51:08.492Z,77.50
2024-04-25T21:53:36.730Z,77.10
2024-04-25T21:56:06.373Z,76.83
2024-04-25T21:58:36.033Z,77.23
2024-04-25T22:01:06.064Z,77.20
2024-04-25T22:03:35.313Z,77.07
2024-04-25T22:06:04.076Z,77.16
2024-04-25T22:08:32.489Z,76.95
2024-04-25T22:11:00.746Z,76.18
2024-04-25T22:13:29.675Z,76.06
2024-04-25T22:15:57.804Z,76.59
2024-04-25T22:18:26.441Z,76.60
2024-04-25T22:20:54.960Z,76.18
2024-04-25T22:23:23.378Z,76.68
2024-04-25T22:25:51.946Z,75.89
2024-04-25T22:28:20.117Z,76.37
2024-04-25T22:30:48.200Z,76.97
2024-04-25T22:33:17.248Z,76.54
2024-04-25T22:35:49.218Z,75.91
2024-04-25T22:38:17.552Z,76.53
2024-04-25T22:40:46.176Z,76.15
2024-04-25T22:43:14.660Z,75.93
2024-04-25T22:45:42.905Z,76.16
2024-04-25T22:48:11.491Z,77.02
2024-04-25T22:50:40.058Z,76.91
2024-04-25T22:53:08.372Z,77.15
2024-04-25T22:55:36.978Z,76.92
2024-04-25T22:58:05.451Z,76.96
2024-04-25T23:00:33.703Z,77.44
2024-04-25T23:03:01.959Z,77.67
2024-04-25T23:05:35.126Z,77.92
2024-04-25T23:08:04.112Z,78.22
2024-04-25T23:10:34.002Z,78.06
2024-04-25T23:13:03.346Z,77.29
2024-04-25T23:15:31.956Z,77.63
2024-04-25T23:18:00.197Z,77.60
2024-04-25T23:20:29.083Z,77.97
2024-04-25T23:22:57.851Z,78.53
2024-04-25T23:25:26.172Z,78.20
2024-04-25T23:27:54.890Z,77.82
2024-04-25T23:30:23.316Z,77.33
2024-04-25T23:32:51.777Z,77.55
2024-04-25T23:35:20.548Z,77.95
2024-04-25T23:37:49.200Z,78.38
2024-04-25T23:40:17.718Z,78.12
2024-04-25T23:42:45.860Z,78.31
2024-04-25T23:45:14.111Z,77.88
2024-04-25T23:47:42.605Z,77.71
2024-04-25T23:50:11.265Z,77.64
2024-04-25T23:52:39.646Z,77.93
2024-04-25T23:55:08.462Z,78.60
2024-04-25T23:57:36.918Z,78.48
